Time;durP1;ratioP1;P1;durP2;ratioP2;P2;SDS_P1;SDS_P2;PMS_P1;PMS_P2;Temp;Humidity;BMP_temperature;BMP_pressure;BME280_temperature;BME280_humidity;BME280_pressure;Samples;Min_cycle;Max_cycle;Signal;HPM_P1;HPM_P2
2023/05/02 00:02:00;;;;;;;5.87;3.10;;;10.40;98.00;;;;;;5052679;28;20526;-65
2023/05/02 00:04:27;;;;;;;8.33;3.63;;;10.30;98.00;;;;;;5052577;28;20462;-65
2023/05/02 00:06:57;;;;;;;7.27;3.80;;;10.20;98.00;;;;;;5052601;28;20454;-66
2023/05/02 00:09:24;;;;;;;5.50;3.77;;;10.10;98.00;;;;;;5052666;28;20463;-66
2023/05/02 00:11:51;;;;;;;6.70;3.27;;;10.00;98.00;;;;;;5051235;28;20467;-65
2023/05/02 00:14:18;;;;;;;4.77;2.57;;;10.10;98.00;;;;;;5052192;28;20484;-67
2023/05/02 00:16:45;;;;;;;4.27;2.63;;;10.10;98.00;;;;;;5063306;28;20459;-65
2023/05/02 00:19:14;;;;;;;6.40;3.07;;;10.10;98.00;;;;;;5072050;28;20461;-67
2023/05/02 00:21:41;;;;;;;6.77;3.37;;;10.30;98.00;;;;;;5072032;28;20484;-66
2023/05/02 00:24:09;;;;;;;4.70;2.70;;;10.30;98.00;;;;;;5072099;28;20467;-66
2023/05/02 00:26:36;;;;;;;6.90;3.30;;;10.20;98.00;;;;;;5070669;28;20485;-65
2023/05/02 00:29:04;;;;;;;4.80;2.87;;;10.10;98.00;;;;;;5072022;28;21021;-66
2023/05/02 00:31:31;;;;;;;4.10;2.73;;;10.00;98.00;;;;;;5072054;28;20458;-66
2023/05/02 00:33:58;;;;;;;5.53;2.80;;;10.00;98.00;;;;;;5071880;28;20460;-66
2023/05/02 00:36:27;;;;;;;4.87;2.93;;;10.00;98.00;;;;;;5071576;28;20522;-66
2023/05/02 00:38:54;;;;;;;5.60;3.40;;;10.10;98.00;;;;;;5070692;28;20455;-65
2023/05/02 00:41:23;;;;;;;5.37;3.17;;;9.90;98.00;;;;;;5071558;28;20522;-67
2023/05/02 00:43:50;;;;;;;5.13;3.03;;;9.80;98.00;;;;;;5071680;28;20461;-66
2023/05/02 00:46:18;;;;;;;5.60;2.90;;;9.90;98.00;;;;;;5071489;28;20483;-66
2023/05/02 00:48:45;;;;;;;7.13;3.20;;;9.90;98.00;;;;;;5071602;28;20826;-65
2023/05/02 00:51:12;;;;;;;6.40;3.03;;;9.90;98.00;;;;;;5071430;28;20472;-65
2023/05/02 00:53:41;;;;;;;6.57;2.70;;;9.90;98.00;;;;;;5071795;28;20456;-66
2023/05/02 00:56:08;;;;;;;5.90;2.83;;;9.70;98.00;;;;;;5071377;28;20545;-66
2023/05/02 00:58:36;;;;;;;7.50;3.10;;;9.70;98.00;;;;;;5071532;28;20464;-66
2023/05/02 01:01:12;;;;;;;5.00;3.10;;;9.70;98.00;;;;;;5071560;28;20451;-65
2023/05/02 01:03:46;;;;;;;5.70;2.90;;;9.70;98.00;;;;;;5071580;28;20459;-66
2023/05/02 01:06:28;;;;;;;5.17;3.23;;;9.80;98.00;;;;;;5071378;28;20578;-65
2023/05/02 01:09:07;;;;;;;6.30;3.33;;;9.80;98.00;;;;;;5071414;28;20501;-67
2023/05/02 01:11:42;;;;;;;5.10;2.67;;;9.70;98.00;;;;;;5070265;28;20451;-66
2023/05/02 01:14:11;;;;;;;6.67;3.20;;;9.70;98.00;;;;;;5071187;28;20477;-66
2023/05/02 01:16:40;;;;;;;6.70;3.67;;;9.50;98.00;;;;;;5071223;28;20994;-66
2023/05/02 01:19:14;;;;;;;4.33;2.67;;;9.40;98.00;;;;;;5071349;28;20483;-66
2023/05/02 01:21:42;;;;;;;6.47;3.10;;;9.50;98.00;;;;;;5071147;28;20463;-66
2023/05/02 01:24:18;;;;;;;5.60;3.00;;;9.50;98.00;;;;;;5071120;28;20511;-65
2023/05/02 01:26:56;;;;;;;6.27;3.37;;;9.40;98.00;;;;;;5071251;28;20540;-66
2023/05/02 01:29:27;;;;;;;4.63;3.07;;;9.40;98.00;;;;;;5071064;28;20466;-66
2023/05/02 01:31:58;;;;;;;7.47;3.17;;;9.50;98.00;;;;;;5070528;28;20467;-65
2023/05/02 01:34:27;;;;;;;6.70;2.77;;;9.40;98.00;;;;;;5070857;28;20457;-66
2023/05/02 01:36:57;;;;;;;6.63;2.80;;;9.40;98.00;;;;;;5070880;28;20480;-67
2023/05/02 01:39:25;;;;;;;7.60;2.77;;;9.60;98.00;;;;;;5071040;28;20456;-65
2023/05/02 01:41:56;;;;;;;4.40;2.60;;;9.60;98.00;;;;;;5070899;28;20498;-65
2023/05/02 01:44:27;;;;;;;8.13;2.70;;;9.70;98.00;;;;;;5071252;28;20472;-65
2023/05/02 01:46:56;;;;;;;4.13;2.90;;;9.60;98.00;;;;;;5070900;28;20484;-66
2023/05/02 01:49:24;;;;;;;7.33;2.90;;;9.50;98.00;;;;;;5070948;28;20457;-66
2023/05/02 01:51:52;;;;;;;5.63;2.90;;;9.40;98.00;;;;;;5070794;28;20954;-65
2023/05/02 01:54:27;;;;;;;6.50;2.80;;;9.40;98.00;;;;;;5070830;28;20456;-65
2023/05/02 01:56:55;;;;;;;4.83;2.70;;;9.40;98.00;;;;;;5070825;28;20448;-66
2023/05/02 01:59:25;;;;;;;5.80;3.03;;;9.40;98.00;;;;;;5070023;28;20825;-65
2023/05/02 02:01:55;;;;;;;5.10;3.10;;;9.40;98.00;;;;;;5071355;28;20453;-66
2023/05/02 02:04:25;;;;;;;7.53;3.87;;;9.40;98.00;;;;;;5070754;28;20485;-65
2023/05/02 02:06:57;;;;;;;6.07;3.10;;;9.30;98.00;;;;;;5070680;28;20488;-67
2023/05/02 02:09:25;;;;;;;4.10;2.53;;;9.30;98.00;;;;;;5070715;28;20460;-65
2023/05/02 02:11:57;;;;;;;6.57;3.50;;;9.30;98.00;;;;;;5070809;28;20462;-65
2023/05/02 02:14:31;;;;;;;5.20;2.80;;;9.20;98.00;;;;;;5070815;28;20463;-65
2023/05/02 02:17:06;;;;;;;11.20;3.60;;;9.20;98.00;;;;;;5070622;28;20467;-66
2023/05/02 02:19:34;;;;;;;5.00;3.07;;;9.20;98.00;;;;;;5070596;28;20504;-66
2023/05/02 02:22:04;;;;;;;5.87;3.17;;;9.30;98.00;;;;;;5070624;28;20460;-66
2023/05/02 02:24:34;;;;;;;8.53;3.30;;;9.30;98.00;;;;;;5070610;28;20816;-64
2023/05/02 02:27:01;;;;;;;5.80;2.80;;;9.10;98.00;;;;;;5070394;28;20566;-65
2023/05/02 02:29:30;;;;;;;6.47;3.07;;;9.10;98.00;;;;;;5070493;28;20495;-66
2023/05/02 02:31:57;;;;;;;6.20;3.10;;;9.00;98.00;;;;;;5070503;28;20459;-66
2023/05/02 02:34:25;;;;;;;5.80;3.07;;;9.00;98.00;;;;;;5070552;28;20453;-66
2023/05/02 02:37:00;;;;;;;8.17;2.87;;;9.00;98.00;;;;;;5069285;28;20804;-66
2023/05/02 02:39:43;;;;;;;8.47;3.57;;;9.10;98.00;;;;;;5070433;28;20460;-65
2023/05/02 02:42:16;;;;;;;4.70;2.90;;;9.20;98.00;;;;;;5070581;28;20532;-66
2023/05/02 02:44:56;;;;;;;7.80;3.23;;;9.30;98.00;;;;;;5073973;28;20966;-66
2023/05/02 02:47:29;;;;;;;8.30;3.63;;;9.40;98.00;;;;;;5073753;28;20484;-65
2023/05/02 02:50:11;;;;;;;10.43;3.90;;;9.40;98.00;;;;;;5073960;28;20482;-66
2023/05/02 02:52:50;;;;;;;7.40;3.90;;;9.50;98.00;;;;;;5073999;28;20456;-65
2023/05/02 02:55:28;;;;;;;5.70;3.27;;;9.50;98.00;;;;;;5072912;28;20965;-65
2023/05/02 02:58:00;;;;;;;10.93;4.10;;;9.50;98.00;;;;;;5073814;28;20463;-65
2023/05/02 03:00:29;;;;;;;10.67;3.90;;;9.30;98.00;;;;;;5073508;28;20457;-66
2023/05/02 03:02:57;;;;;;;10.63;4.10;;;9.40;98.00;;;;;;5073760;28;21119;-65
2023/05/02 03:05:25;;;;;;;8.73;4.23;;;9.40;98.00;;;;;;5072219;28;20458;-65
2023/05/02 03:07:52;;;;;;;7.17;3.97;;;9.20;98.00;;;;;;5073539;28;20453;-66
2023/05/02 03:10:19;;;;;;;6.73;3.30;;;9.20;98.00;;;;;;5073443;28;20453;-65
2023/05/02 03:12:46;;;;;;;8.87;3.60;;;9.20;98.00;;;;;;5073438;28;20469;-65
2023/05/02 03:15:28;;;;;;;9.03;4.57;;;9.30;98.00;;;;;;5073526;28;20460;-65
2023/05/02 03:17:57;;;;;;;6.10;3.80;;;9.30;98.00;;;;;;5073482;28;20452;-66
2023/05/02 03:20:24;;;;;;;8.10;3.60;;;9.40;98.00;;;;;;5073237;28;20456;-66
2023/05/02 03:22:51;;;;;;;6.73;3.87;;;9.40;98.00;;;;;;5073304;28;20466;-66
2023/05/02 03:25:19;;;;;;;7.07;3.83;;;9.40;98.00;;;;;;5073159;28;20497;-66
2023/05/02 03:27:47;;;;;;;10.23;3.90;;;9.50;98.00;;;;;;5072630;28;20468;-66
2023/05/02 03:30:14;;;;;;;8.90;3.57;;;9.50;98.00;;;;;;5073845;28;20449;-65
2023/05/02 03:32:41;;;;;;;7.80;4.17;;;9.40;98.00;;;;;;5073865;28;20456;-66
2023/05/02 03:35:10;;;;;;;4.80;2.97;;;9.40;98.00;;;;;;5073710;28;20460;-66
2023/05/02 03:37:37;;;;;;;10.53;3.90;;;9.40;98.00;;;;;;5073248;28;20480;-66
2023/05/02 03:40:05;;;;;;;7.20;3.50;;;9.10;98.00;;;;;;5073326;28;20453;-65
2023/05/02 03:42:32;;;;;;;8.27;3.60;;;9.00;98.00;;;;;;5073388;28;20505;-65
2023/05/02 03:44:59;;;;;;;8.93;3.63;;;9.10;98.00;;;;;;5073690;28;20451;-65
2023/05/02 03:47:26;;;;;;;6.10;3.40;;;9.10;98.00;;;;;;5072878;28;21149;-65
2023/05/02 03:49:53;;;;;;;6.27;3.00;;;9.30;98.00;;;;;;5074097;28;20449;-66
2023/05/02 03:52:22;;;;;;;4.57;3.13;;;9.30;98.00;;;;;;5073334;28;20461;-66
2023/05/02 03:54:50;;;;;;;7.27;3.33;;;9.30;98.00;;;;;;5073127;28;20457;-66
2023/05/02 03:57:18;;;;;;;6.57;3.03;;;9.20;98.00;;;;;;5073083;28;20462;-66
2023/05/02 03:59:46;;;;;;;7.80;3.70;;;9.20;98.00;;;;;;5073177;28;20947;-65
2023/05/02 04:02:14;;;;;;;5.50;3.20;;;9.20;98.00;;;;;;5071411;28;20457;-66
2023/05/02 04:04:42;;;;;;;5.57;3.03;;;9.30;98.00;;;;;;5072527;28;20463;-66
2023/05/02 04:07:15;;;;;;;8.53;3.67;;;9.20;98.00;;;;;;5072168;28;21005;-66
2023/05/02 04:09:44;;;;;;;5.90;3.23;;;9.20;98.00;;;;;;5072420;28;21026;-66
2023/05/02 04:12:11;;;;;;;7.77;3.70;;;9.20;98.00;;;;;;5072269;28;20460;-66
2023/05/02 04:14:38;;;;;;;7.13;3.23;;;9.20;98.00;;;;;;5072197;28;20469;-66
2023/05/02 04:17:05;;;;;;;6.53;3.53;;;9.10;98.00;;;;;;5070981;28;20471;-67
2023/05/02 04:19:33;;;;;;;6.53;3.60;;;9.20;98.00;;;;;;5072075;28;20464;-67
2023/05/02 04:22:01;;;;;;;7.80;3.40;;;9.20;98.00;;;;;;5072228;28;20867;-65
2023/05/02 04:24:28;;;;;;;3.90;2.57;;;9.20;98.00;;;;;;5072069;28;20804;-66
2023/05/02 04:26:57;;;;;;;6.00;3.10;;;9.20;98.00;;;;;;5072048;28;20483;-66
2023/05/02 04:29:24;;;;;;;6.23;3.10;;;9.30;98.00;;;;;;5070717;28;20449;-66
2023/05/02 04:31:52;;;;;;;6.10;3.27;;;9.30;98.00;;;;;;5071852;28;20487;-66
2023/05/02 04:34:19;;;;;;;6.07;3.17;;;9.40;98.00;;;;;;5070736;28;20449;-66
2023/05/02 04:36:47;;;;;;;4.33;3.03;;;9.40;98.00;;;;;;5071713;28;21058;-66
2023/05/02 04:39:14;;;;;;;5.87;2.93;;;9.40;98.00;;;;;;5071928;28;20815;-66
2023/05/02 04:41:41;;;;;;;5.23;3.10;;;9.20;98.00;;;;;;5071837;28;20800;-65
2023/05/02 04:44:10;;;;;;;4.77;2.97;;;9.20;98.00;;;;;;5072222;28;20961;-66
2023/05/02 04:46:37;;;;;;;5.90;2.87;;;9.20;98.00;;;;;;5071886;28;20476;-66
2023/05/02 04:49:05;;;;;;;5.40;2.77;;;9.30;98.00;;;;;;5071789;28;20468;-65
2023/05/02 04:51:32;;;;;;;6.30;3.37;;;9.30;98.00;;;;;;5071514;28;20468;-66
2023/05/02 04:54:02;;;;;;;8.60;3.63;;;9.30;98.00;;;;;;5070489;28;20949;-67
2023/05/02 04:56:29;;;;;;;7.63;3.47;;;9.40;98.00;;;;;;5071516;28;20873;-65
2023/05/02 04:58:56;;;;;;;5.20;3.10;;;9.50;98.00;;;;;;5071457;28;20508;-65
2023/05/02 05:01:26;;;;;;;5.60;3.07;;;9.50;98.00;;;;;;5071831;28;20524;-66
2023/05/02 05:03:53;;;;;;;7.03;3.00;;;9.50;98.00;;;;;;5053735;28;20543;-65
2023/05/02 05:06:23;;;;;;;8.73;4.80;;;9.50;98.00;;;;;;5070542;28;20488;-66
2023/05/02 05:08:50;;;;;;;12.00;4.30;;;9.60;98.00;;;;;;5070043;28;20496;-66
2023/05/02 05:11:17;;;;;;;8.50;3.97;;;9.60;98.00;;;;;;5071306;28;20472;-66
2023/05/02 05:13:44;;;;;;;13.07;5.67;;;9.60;98.00;;;;;;5071055;28;20473;-65
2023/05/02 05:16:11;;;;;;;7.30;3.53;;;9.70;98.00;;;;;;5071333;28;20973;-65
2023/05/02 05:18:41;;;;;;;9.10;4.20;;;9.80;98.00;;;;;;5071189;28;20463;-65
2023/05/02 05:21:08;;;;;;;7.43;3.93;;;9.80;98.00;;;;;;5070021;28;20470;-66
2023/05/02 05:23:36;;;;;;;4.43;3.03;;;9.70;98.00;;;;;;5071120;28;20479;-66
2023/05/02 05:26:10;;;;;;;6.50;3.17;;;9.70;98.00;;;;;;5071298;28;20452;-67
2023/05/02 05:28:38;;;;;;;5.73;3.40;;;10.00;98.00;;;;;;5071355;28;20954;-66
2023/05/02 05:31:06;;;;;;;7.80;3.77;;;10.00;98.00;;;;;;5069841;28;20506;-66
2023/05/02 05:33:33;;;;;;;5.47;3.60;;;9.80;98.00;;;;;;5071156;28;20543;-65
2023/05/02 05:36:06;;;;;;;7.00;3.50;;;9.80;98.00;;;;;;5071112;28;20457;-66
2023/05/02 05:38:33;;;;;;;5.70;3.00;;;9.90;98.00;;;;;;5071090;28;20464;-65
2023/05/02 05:41:01;;;;;;;8.33;3.93;;;10.10;98.00;;;;;;5071394;28;21007;-65
2023/05/02 05:43:28;;;;;;;6.03;3.77;;;10.20;98.00;;;;;;5071153;28;20462;-66
2023/05/02 05:45:56;;;;;;;6.23;3.60;;;10.30;98.00;;;;;;5071165;28;20449;-65
2023/05/02 05:48:23;;;;;;;6.83;3.83;;;10.30;98.00;;;;;;5070792;28;20489;-66
2023/05/02 05:50:51;;;;;;;6.90;3.77;;;10.50;98.00;;;;;;5070983;28;20821;-66
2023/05/02 05:53:20;;;;;;;9.70;4.40;;;10.70;98.00;;;;;;5070743;28;21089;-66
2023/05/02 05:55:59;;;;;;;6.70;3.50;;;10.60;98.00;;;;;;5071058;28;20459;-65
2023/05/02 05:58:26;;;;;;;8.70;3.93;;;10.60;98.00;;;;;;5070833;28;20867;-65
2023/05/02 06:00:53;;;;;;;10.00;4.70;;;10.50;98.00;;;;;;5070885;28;20456;-62
2023/05/02 06:03:20;;;;;;;8.43;4.07;;;10.50;98.00;;;;;;5070685;28;21178;-63
2023/05/02 06:05:47;;;;;;;6.87;3.80;;;10.60;98.00;;;;;;5070921;28;20561;-63
2023/05/02 06:08:15;;;;;;;9.77;4.07;;;10.70;98.00;;;;;;5070765;28;20481;-66
2023/05/02 06:10:43;;;;;;;10.23;4.63;;;10.70;98.00;;;;;;5070543;28;20952;-62
2023/05/02 06:13:11;;;;;;;9.70;4.13;;;10.80;98.00;;;;;;5070640;28;20463;-63
2023/05/02 06:15:38;;;;;;;7.50;4.07;;;10.90;98.00;;;;;;5070779;28;20473;-64
2023/05/02 06:18:07;;;;;;;6.67;4.10;;;10.90;98.00;;;;;;5073963;28;20467;-62
2023/05/02 06:20:36;;;;;;;7.63;4.30;;;11.00;98.00;;;;;;5074559;28;20466;-63
2023/05/02 06:23:03;;;;;;;6.03;3.73;;;11.20;98.00;;;;;;5074161;28;20457;-63
2023/05/02 06:25:32;;;;;;;7.07;3.43;;;11.30;98.00;;;;;;5074326;28;20455;-63
2023/05/02 06:28:01;;;;;;;10.33;3.63;;;11.50;98.00;;;;;;5074305;28;20486;-63
2023/05/02 06:30:28;;;;;;;17.00;4.23;;;11.70;98.00;;;;;;5074324;28;20461;-63
2023/05/02 06:32:55;;;;;;;9.77;4.47;;;11.80;98.00;;;;;;5074248;28;20824;-64
2023/05/02 06:35:23;;;;;;;8.70;4.17;;;11.90;98.00;;;;;;5074649;28;20461;-62
2023/05/02 06:37:50;;;;;;;6.30;3.30;;;12.00;98.00;;;;;;5074151;28;20454;-62
2023/05/02 06:40:17;;;;;;;9.40;3.77;;;12.10;98.00;;;;;;5074267;28;20465;-64
2023/05/02 06:42:44;;;;;;;8.37;3.53;;;12.10;98.00;;;;;;5074149;28;20794;-64
2023/05/02 06:45:12;;;;;;;10.30;4.13;;;12.20;98.00;;;;;;5074062;28;20464;-64
2023/05/02 06:47:39;;;;;;;11.83;4.30;;;12.20;98.00;;;;;;5073963;28;20492;-63
2023/05/02 06:50:08;;;;;;;8.80;4.40;;;12.30;98.00;;;;;;5072824;28;20811;-63
2023/05/02 06:52:35;;;;;;;7.17;4.03;;;12.30;98.00;;;;;;5074010;28;20521;-62
2023/05/02 06:55:02;;;;;;;7.27;4.03;;;12.30;98.00;;;;;;5072566;28;20682;-62
2023/05/02 06:57:30;;;;;;;7.30;3.73;;;12.40;98.00;;;;;;5066825;28;20532;-63
2023/05/02 06:59:57;;;;;;;11.63;4.37;;;12.30;98.00;;;;;;5072356;28;20518;-64
2023/05/02 07:02:26;;;;;;;10.10;4.43;;;12.20;98.00;;;;;;5062746;28;20467;-63
2023/05/02 07:04:53;;;;;;;10.33;4.97;;;12.30;98.00;;;;;;5035795;28;20466;-62
2023/05/02 07:07:21;;;;;;;6.93;4.07;;;12.40;98.00;;;;;;5053908;28;20532;-63
2023/05/02 07:09:48;;;;;;;7.70;4.50;;;12.50;98.00;;;;;;5054204;28;20943;-64
2023/05/02 07:12:15;;;;;;;7.93;3.90;;;12.40;98.00;;;;;;5054275;28;20556;-62
2023/05/02 07:14:45;;;;;;;8.47;4.00;;;12.40;98.00;;;;;;5054174;28;20463;-63
2023/05/02 07:17:12;;;;;;;7.87;3.90;;;12.50;98.00;;;;;;5052972;28;20509;-64
2023/05/02 07:19:41;;;;;;;9.03;4.10;;;12.50;98.00;;;;;;5054108;28;20466;-64
2023/05/02 07:22:08;;;;;;;8.50;4.57;;;12.50;98.00;;;;;;5054294;28;20886;-62
2023/05/02 07:24:35;;;;;;;7.33;4.17;;;12.60;98.00;;;;;;5053947;28;20786;-64
2023/05/02 07:27:04;;;;;;;7.97;4.27;;;12.80;98.00;;;;;;5053689;28;20533;-61
2023/05/02 07:29:31;;;;;;;10.43;4.70;;;12.90;98.00;;;;;;5053123;28;20557;-64
2023/05/02 07:31:59;;;;;;;4.30;2.60;;;13.00;98.00;;;;;;5056180;28;20946;-66
2023/05/02 07:34:26;;;;;;;7.73;4.57;;;13.50;98.00;;;;;;5073970;28;20504;-61
2023/05/02 07:36:55;;;;;;;9.30;5.00;;;14.00;98.00;;;;;;5073375;28;20464;-64
2023/05/02 07:39:22;;;;;;;9.43;4.50;;;14.00;98.00;;;;;;5073555;28;20462;-60
2023/05/02 07:41:52;;;;;;;9.40;4.50;;;14.00;98.00;;;;;;5073475;28;20457;-62
2023/05/02 07:44:19;;;;;;;9.40;4.47;;;13.90;98.00;;;;;;5073752;28;20467;-62
2023/05/02 07:46:46;;;;;;;14.77;5.63;;;13.70;98.00;;;;;;5073109;28;20465;-62
2023/05/02 07:49:13;;;;;;;10.40;5.07;;;13.60;98.00;;;;;;5073379;28;20489;-61
2023/05/02 07:51:40;;;;;;;12.10;4.87;;;13.60;98.00;;;;;;5073585;28;20796;-62
2023/05/02 07:54:16;;;;;;;13.20;4.87;;;13.50;98.00;;;;;;5073206;28;20967;-62
2023/05/02 07:56:44;;;;;;;10.67;5.33;;;13.50;98.00;;;;;;5071997;28;20460;-64
2023/05/02 07:59:12;;;;;;;11.23;4.93;;;13.50;98.00;;;;;;5073209;28;20467;-65
2023/05/02 08:01:40;;;;;;;11.37;5.30;;;13.60;98.00;;;;;;5073053;28;20454;-60
2023/05/02 08:04:09;;;;;;;10.33;5.20;;;13.70;98.00;;;;;;5073058;28;20824;-61
2023/05/02 08:06:36;;;;;;;10.37;4.83;;;13.80;98.00;;;;;;5072591;28;20448;-61
2023/05/02 08:09:04;;;;;;;10.77;5.40;;;13.80;98.00;;;;;;5073046;28;20519;-61
2023/05/02 08:11:32;;;;;;;11.80;5.57;;;13.90;98.00;;;;;;5062720;28;20455;-62
2023/05/02 08:13:59;;;;;;;12.33;5.30;;;13.90;98.00;;;;;;5053250;28;20456;-63
2023/05/02 08:16:26;;;;;;;12.73;5.63;;;13.90;98.00;;;;;;5053044;28;20859;-62
2023/05/02 08:18:53;;;;;;;9.50;4.90;;;13.90;98.00;;;;;;5052559;28;20471;-62
2023/05/02 08:21:20;;;;;;;9.80;5.20;;;14.00;98.00;;;;;;5053080;28;20530;-61
2023/05/02 08:23:48;;;;;;;11.60;5.17;;;14.20;98.00;;;;;;5052949;28;20464;-63
2023/05/02 08:26:17;;;;;;;9.57;5.00;;;14.40;98.00;;;;;;5052045;28;20855;-61
2023/05/02 08:28:47;;;;;;;10.90;5.93;;;14.50;98.00;;;;;;5052731;28;20579;-61
2023/05/02 08:31:14;;;;;;;10.37;5.30;;;14.40;98.00;;;;;;5051598;28;20468;-61
2023/05/02 08:33:41;;;;;;;11.30;5.83;;;14.40;98.00;;;;;;5032370;28;20468;-63
2023/05/02 08:36:12;;;;;;;13.20;5.90;;;14.40;98.00;;;;;;5031553;28;20450;-62
2023/05/02 08:38:39;;;;;;;11.40;5.83;;;14.20;98.00;;;;;;5034476;28;20457;-64
2023/05/02 08:41:12;;;;;;;12.67;6.10;;;14.30;98.00;;;;;;5052479;28;20457;-61
2023/05/02 08:43:40;;;;;;;17.87;7.10;;;14.40;98.00;;;;;;5052394;28;21012;-61
2023/05/02 08:46:10;;;;;;;13.70;5.53;;;14.40;98.00;;;;;;5049201;28;20471;-61
2023/05/02 08:48:39;;;;;;;12.60;4.90;;;14.30;98.00;;;;;;5052287;28;20486;-62
2023/05/02 08:51:09;;;;;;;15.03;6.00;;;14.30;98.00;;;;;;5052567;28;20499;-63
2023/05/02 08:53:38;;;;;;;9.67;5.53;;;14.30;98.00;;;;;;5052317;28;20453;-61
2023/05/02 08:56:06;;;;;;;10.77;5.37;;;14.40;98.00;;;;;;5052398;28;20510;-62
2023/05/02 08:58:35;;;;;;;14.10;6.00;;;14.60;98.00;;;;;;5052179;28;20951;-62
2023/05/02 09:01:04;;;;;;;12.53;6.00;;;14.70;98.00;;;;;;5052242;28;20530;-63
2023/05/02 09:03:33;;;;;;;9.10;4.90;;;14.80;98.00;;;;;;5052294;28;20783;-60
2023/05/02 09:06:06;;;;;;;12.80;5.53;;;15.00;98.00;;;;;;5052382;28;20940;-62
2023/05/02 09:08:34;;;;;;;14.00;5.73;;;15.10;98.00;;;;;;5052407;28;20934;-63
2023/05/02 09:11:03;;;;;;;12.10;5.97;;;15.10;98.00;;;;;;5052276;28;20460;-63
2023/05/02 09:13:32;;;;;;;17.80;7.43;;;15.30;98.00;;;;;;5051826;28;20917;-62
2023/05/02 09:16:01;;;;;;;11.47;5.40;;;15.50;98.00;;;;;;5052115;28;20465;-63
2023/05/02 09:18:30;;;;;;;13.10;5.10;;;15.60;98.00;;;;;;5052186;28;20465;-63
2023/05/02 09:21:01;;;;;;;13.13;6.63;;;15.70;98.00;;;;;;5052349;28;20552;-64
2023/05/02 09:23:36;;;;;;;13.67;6.10;;;15.80;98.00;;;;;;5052259;28;20461;-63
2023/05/02 09:26:11;;;;;;;11.40;5.80;;;15.80;98.00;;;;;;5051890;28;20460;-62
2023/05/02 09:28:40;;;;;;;13.20;6.50;;;15.80;98.00;;;;;;5051821;28;20516;-62
2023/05/02 09:31:09;;;;;;;16.73;7.37;;;15.90;98.00;;;;;;5051804;28;20547;-62
2023/05/02 09:33:37;;;;;;;11.63;5.60;;;15.90;98.00;;;;;;5051749;28;20875;-62
2023/05/02 09:36:07;;;;;;;15.80;6.80;;;16.00;98.00;;;;;;5051594;28;20496;-63
2023/05/02 09:38:34;;;;;;;16.60;6.73;;;16.00;98.00;;;;;;5051696;28;20481;-63
2023/05/02 09:41:03;;;;;;;15.90;7.37;;;16.00;98.00;;;;;;5051613;28;20470;-63
2023/05/02 09:43:31;;;;;;;12.20;6.07;;;16.20;98.00;;;;;;5051446;28;20497;-63
2023/05/02 09:46:00;;;;;;;17.70;7.70;;;16.10;98.00;;;;;;5051264;28;20485;-62
2023/05/02 09:48:28;;;;;;;17.00;7.50;;;16.00;98.00;;;;;;5051138;28;20482;-62
2023/05/02 09:50:56;;;;;;;16.73;7.00;;;15.90;98.00;;;;;;5051737;28;20453;-62
2023/05/02 09:53:27;;;;;;;15.97;6.77;;;16.00;98.00;;;;;;5054612;28;20473;-63
2023/05/02 09:56:02;;;;;;;15.33;6.80;;;16.10;98.00;;;;;;5054796;28;20460;-63
2023/05/02 09:58:30;;;;;;;12.27;6.27;;;16.40;98.00;;;;;;5054697;28;20475;-63
2023/05/02 10:00:58;;;;;;;16.40;6.60;;;16.50;98.00;;;;;;5054810;28;20959;-63
2023/05/02 10:03:26;;;;;;;15.43;6.77;;;16.60;98.00;;;;;;5054811;28;20488;-63
2023/05/02 10:05:54;;;;;;;19.50;7.97;;;16.70;98.00;;;;;;5053644;28;20859;-61
2023/05/02 10:08:22;;;;;;;16.40;6.70;;;16.90;98.00;;;;;;5054469;28;20493;-62
2023/05/02 10:10:56;;;;;;;14.50;7.00;;;16.90;98.00;;;;;;5054735;28;20460;-62
2023/05/02 10:13:26;;;;;;;15.67;6.80;;;17.10;98.00;;;;;;5054230;28;20817;-64
2023/05/02 10:16:00;;;;;;;14.70;6.40;;;17.40;98.00;;;;;;5054581;28;20476;-66
2023/05/02 10:18:39;;;;;;;15.80;6.83;;;17.90;98.00;;;;;;5053292;28;20495;-63
2023/05/02 10:21:10;;;;;;;14.67;7.00;;;18.20;98.00;;;;;;5054900;28;20947;-63
2023/05/02 10:23:41;;;;;;;15.57;6.67;;;18.60;98.00;;;;;;5054620;28;20454;-63
2023/05/02 10:26:13;;;;;;;16.40;7.53;;;18.70;98.00;;;;;;5054409;28;20552;-63
2023/05/02 10:28:41;;;;;;;19.10;8.60;;;18.70;98.00;;;;;;5054827;28;20489;-62
2023/05/02 10:31:11;;;;;;;13.93;6.40;;;18.70;98.00;;;;;;5055335;28;20465;-63
2023/05/02 10:33:39;;;;;;;13.73;6.80;;;18.80;98.00;;;;;;5054743;28;20493;-63
2023/05/02 10:36:11;;;;;;;14.40;7.20;;;18.90;98.00;;;;;;5055355;28;20467;-64
2023/05/02 10:38:39;;;;;;;15.20;7.20;;;18.90;98.00;;;;;;5054897;28;20453;-64
2023/05/02 10:41:13;;;;;;;14.53;6.40;;;18.80;98.00;;;;;;5052988;28;20446;-63
2023/05/02 10:43:41;;;;;;;14.13;6.60;;;18.70;98.00;;;;;;5054134;28;20512;-63
2023/05/02 10:46:33;;;;;;;16.90;6.90;;;18.90;98.00;;;;;;5054232;28;20465;-63
2023/05/02 10:49:05;;;;;;;12.40;6.57;;;19.20;98.00;;;;;;5054024;28;20493;-63
2023/05/02 10:51:33;;;;;;;15.33;7.13;;;19.50;98.00;;;;;;5054097;28;20457;-62
2023/05/02 10:54:24;;;;;;;11.87;6.30;;;19.70;98.00;;;;;;5053961;28;20462;-63
2023/05/02 10:57:08;;;;;;;11.87;6.37;;;20.00;98.00;;;;;;5043254;28;20484;-62
2023/05/02 10:59:37;;;;;;;14.67;7.00;;;20.10;98.00;;;;;;5053960;28;20935;-64
2023/05/02 11:02:05;;;;;;;15.37;6.90;;;19.90;98.00;;;;;;5054194;28;20799;-63
2023/05/02 11:05:02;;;;;;;13.17;7.20;;;19.40;98.00;;;;;;5052568;28;20462;-63
2023/05/02 11:07:30;;;;;;;13.47;6.70;;;19.60;98.00;;;;;;5051731;28;20826;-62
2023/05/02 11:10:27;;;;;;;13.60;6.53;;;19.80;98.00;;;;;;5053487;28;20481;-66
2023/05/02 11:12:56;;;;;;;13.83;5.80;;;19.30;98.00;;;;;;5052332;28;20833;-63
2023/05/02 11:15:56;;;;;;;12.33;6.70;;;19.10;98.00;;;;;;5053663;28;20457;-62
2023/05/02 11:18:23;;;;;;;17.20;6.50;;;19.10;98.00;;;;;;5052025;28;20549;-64
2023/05/02 11:20:50;;;;;;;12.80;6.47;;;19.40;98.00;;;;;;5053538;28;20466;-65
2023/05/02 11:23:25;;;;;;;13.37;6.23;;;19.90;98.00;;;;;;5053264;28;20458;-64
2023/05/02 11:25:55;;;;;;;12.30;6.40;;;20.30;98.00;;;;;;5053773;28;20539;-62
2023/05/02 11:28:46;;;;;;;12.37;6.33;;;20.30;98.00;;;;;;5053201;28;21011;-61
2023/05/02 11:32:01;;;;;;;11.87;5.90;;;20.00;98.00;;;;;;5053344;28;20520;-66
2023/05/02 11:34:28;;;;;;;13.63;6.77;;;19.90;98.00;;;;;;5053003;28;20548;-68
2023/05/02 11:36:56;;;;;;;12.67;6.70;;;20.20;98.00;;;;;;5053134;28;20477;-66
2023/05/02 11:39:23;;;;;;;13.50;6.53;;;20.50;98.00;;;;;;5051676;28;20457;-67
2023/05/02 11:41:51;;;;;;;14.17;6.27;;;20.50;97.00;;;;;;5053054;28;20449;-68
2023/05/02 11:44:21;;;;;;;12.07;6.57;;;20.50;98.00;;;;;;5052833;28;20460;-65
2023/05/02 11:46:49;;;;;;;14.73;7.20;;;20.30;98.00;;;;;;5052765;28;20976;-67
2023/05/02 11:49:23;;;;;;;15.40;7.10;;;19.80;98.00;;;;;;5052580;28;20492;-67
2023/05/02 11:51:51;;;;;;;16.43;7.40;;;19.70;98.00;;;;;;5052835;28;20568;-67
2023/05/02 11:54:20;;;;;;;16.00;7.70;;;19.70;98.00;;;;;;5052637;28;20456;-68
2023/05/02 11:56:48;;;;;;;16.80;6.90;;;19.30;98.00;;;;;;5052595;28;20454;-67
2023/05/02 11:59:15;;;;;;;14.93;7.00;;;19.30;98.00;;;;;;5052473;28;20506;-67
2023/05/02 12:01:49;;;;;;;14.23;7.20;;;19.30;98.00;;;;;;5052646;28;20826;-64
2023/05/02 12:04:20;;;;;;;13.53;7.13;;;19.70;98.00;;;;;;5052829;28;20479;-66
2023/05/02 12:06:57;;;;;;;16.37;7.90;;;20.30;98.00;;;;;;5052643;28;20936;-66
2023/05/02 12:09:25;;;;;;;14.40;7.70;;;20.90;97.50;;;;;;5052201;28;20485;-65
2023/05/02 12:11:54;;;;;;;15.37;7.00;;;21.00;96.90;;;;;;5053015;28;20458;-66
2023/05/02 12:14:28;;;;;;;15.80;7.50;;;21.60;97.10;;;;;;5051995;28;20646;-65
2023/05/02 12:16:58;;;;;;;13.47;6.50;;;21.70;92.80;;;;;;5056329;28;20452;-66
2023/05/02 12:19:25;;;;;;;12.83;6.93;;;22.30;93.70;;;;;;5071993;28;20532;-65
2023/05/02 12:21:53;;;;;;;13.27;6.93;;;22.40;92.60;;;;;;5072135;28;20523;-67
2023/05/02 12:24:21;;;;;;;13.10;6.37;;;22.70;95.80;;;;;;5072191;28;20513;-65
2023/05/02 12:26:48;;;;;;;16.23;7.43;;;23.00;92.60;;;;;;5072179;28;20485;-66
2023/05/02 12:29:15;;;;;;;15.43;7.97;;;23.10;93.20;;;;;;5070689;28;20502;-67
2023/05/02 12:31:51;;;;;;;13.63;7.17;;;23.20;93.10;;;;;;5072216;28;20491;-66
2023/05/02 12:34:33;;;;;;;16.70;8.70;;;23.00;91.10;;;;;;5071930;28;20460;-66
2023/05/02 12:37:00;;;;;;;13.33;7.07;;;22.50;91.30;;;;;;5071895;28;20457;-66
2023/05/02 12:39:38;;;;;;;15.73;7.10;;;22.10;90.30;;;;;;5071652;28;20993;-66
2023/05/02 12:42:12;;;;;;;13.10;6.50;;;22.20;90.60;;;;;;5071764;28;20444;-69
2023/05/02 12:44:43;;;;;;;15.73;7.43;;;22.00;94.40;;;;;;5071782;28;20460;-67
2023/05/02 12:47:11;;;;;;;11.33;6.90;;;21.60;92.90;;;;;;5071927;28;20461;-66
2023/05/02 12:49:53;;;;;;;13.90;7.10;;;21.60;93.10;;;;;;5071527;28;20499;-68
2023/05/02 12:52:21;;;;;;;13.53;6.50;;;21.80;93.10;;;;;;5071991;28;20452;-67
2023/05/02 12:54:49;;;;;;;15.10;7.27;;;22.40;93.70;;;;;;5071826;28;20605;-67
2023/05/02 12:57:23;;;;;;;17.60;8.40;;;22.70;90.40;;;;;;5071900;28;20453;-66
2023/05/02 12:59:52;;;;;;;15.80;7.80;;;22.40;92.30;;;;;;5071579;28;20533;-67